sensor_id;sensor_type;location;lat;lon;timestamp;P1;durP1;ratioP1;P2;durP2;ratioP2
80707;SDS011;70222;49.204;-122.940;2023-08-20T00:01:06;13.05;;;11.65;;
80707;SDS011;70222;49.204;-122.940;2023-08-20T00:03:34;13.45;;;12.05;;
80707;SDS011;70222;49.204;-122.940;2023-08-20T00:06:01;13.63;;;12.27;;
80707;SDS011;70222;49.204;-122.940;2023-08-20T00:08:29;14.23;;;12.80;;
80707;SDS011;70222;49.204;-122.940;2023-08-20T00:10:55;12.82;;;11.52;;
80707;SDS011;70222;49.204;-122.940;2023-08-20T00:13:21;14.73;;;11.80;;
80707;SDS011;70222;49.204;-122.940;2023-08-20T00:15:47;16.23;;;14.38;;
80707;SDS011;70222;49.204;-122.940;2023-08-20T00:18:14;15.93;;;14.50;;
80707;SDS011;70222;49.204;-122.940;2023-08-20T00:23:06;7.03;;;5.32;;
80707;SDS011;70222;49.204;-122.940;2023-08-20T00:27:58;8.65;;;6.10;;
80707;SDS011;70222;49.204;-122.940;2023-08-20T00:30:24;6.32;;;4.97;;
80707;SDS011;70222;49.204;-122.940;2023-08-20T00:32:51;9.77;;;6.35;;
80707;SDS011;70222;49.204;-122.940;2023-08-20T00:35:18;7.30;;;4.43;;
80707;SDS011;70222;49.204;-122.940;2023-08-20T00:37:44;7.47;;;4.47;;
80707;SDS011;70222;49.204;-122.940;2023-08-20T00:40:10;7.72;;;6.93;;
80707;SDS011;70222;49.204;-122.940;2023-08-20T00:42:36;8.70;;;4.72;;
80707;SDS011;70222;49.204;-122.940;2023-08-20T00:45:03;6.93;;;4.65;;
80707;SDS011;70222;49.204;-122.940;2023-08-20T00:47:30;6.47;;;4.95;;
80707;SDS011;70222;49.204;-122.940;2023-08-20T00:49:56;6.93;;;6.20;;
80707;SDS011;70222;49.204;-122.940;2023-08-20T00:52:22;6.72;;;5.30;;
80707;SDS011;70222;49.204;-122.940;2023-08-20T00:54:49;7.28;;;6.15;;
80707;SDS011;70222;49.204;-122.940;2023-08-20T00:57:19;6.35;;;4.38;;
80707;SDS011;70222;49.204;-122.940;2023-08-20T00:59:47;6.88;;;5.47;;
80707;SDS011;70222;49.204;-122.940;2023-08-20T01:02:15;7.28;;;4.88;;
80707;SDS011;70222;49.204;-122.940;2023-08-20T01:04:41;7.30;;;5.38;;
80707;SDS011;70222;49.204;-122.940;2023-08-20T01:07:24;7.20;;;5.53;;
80707;SDS011;70222;49.204;-122.940;2023-08-20T01:12:28;7.88;;;5.43;;
80707;SDS011;70222;49.204;-122.940;2023-08-20T01:14:55;8.18;;;5.25;;
80707;SDS011;70222;49.204;-122.940;2023-08-20T01:17:21;7.68;;;5.93;;
80707;SDS011;70222;49.204;-122.940;2023-08-20T01:19:47;7.40;;;5.75;;
80707;SDS011;70222;49.204;-122.940;2023-08-20T01:25:04;9.02;;;7.97;;
80707;SDS011;70222;49.204;-122.940;2023-08-20T01:27:52;8.98;;;6.90;;
80707;SDS011;70222;49.204;-122.940;2023-08-20T01:30:29;10.35;;;8.25;;
80707;SDS011;70222;49.204;-122.940;2023-08-20T01:35:22;9.15;;;6.25;;
80707;SDS011;70222;49.204;-122.940;2023-08-20T01:37:51;10.80;;;6.60;;
80707;SDS011;70222;49.204;-122.940;2023-08-20T01:43:39;8.10;;;6.65;;
80707;SDS011;70222;49.204;-122.940;2023-08-20T01:46:05;8.07;;;6.55;;
80707;SDS011;70222;49.204;-122.940;2023-08-20T01:48:34;8.60;;;6.05;;
80707;SDS011;70222;49.204;-122.940;2023-08-20T01:51:00;10.02;;;7.60;;
80707;SDS011;70222;49.204;-122.940;2023-08-20T01:53:26;10.20;;;6.47;;
80707;SDS011;70222;49.204;-122.940;2023-08-20T01:55:52;11.52;;;7.47;;
80707;SDS011;70222;49.204;-122.940;2023-08-20T01:58:18;9.95;;;7.70;;
80707;SDS011;70222;49.204;-122.940;2023-08-20T02:00:45;9.43;;;6.25;;
80707;SDS011;70222;49.204;-122.940;2023-08-20T02:03:11;6.35;;;5.00;;
80707;SDS011;70222;49.204;-122.940;2023-08-20T02:05:37;7.88;;;5.88;;
80707;SDS011;70222;49.204;-122.940;2023-08-20T02:08:04;8.35;;;6.18;;
80707;SDS011;70222;49.204;-122.940;2023-08-20T02:10:30;8.93;;;5.43;;
80707;SDS011;70222;49.204;-122.940;2023-08-20T02:12:56;7.75;;;5.68;;
80707;SDS011;70222;49.204;-122.940;2023-08-20T02:15:22;8.10;;;5.28;;
80707;SDS011;70222;49.204;-122.940;2023-08-20T02:17:48;7.72;;;5.75;;
80707;SDS011;70222;49.204;-122.940;2023-08-20T02:20:14;7.45;;;5.57;;
80707;SDS011;70222;49.204;-122.940;2023-08-20T02:22:40;8.80;;;5.20;;
80707;SDS011;70222;49.204;-122.940;2023-08-20T02:25:07;8.60;;;5.57;;
80707;SDS011;70222;49.204;-122.940;2023-08-20T02:27:33;7.72;;;5.55;;
80707;SDS011;70222;49.204;-122.940;2023-08-20T02:29:59;8.05;;;5.85;;
80707;SDS011;70222;49.204;-122.940;2023-08-20T02:32:25;8.80;;;5.53;;
80707;SDS011;70222;49.204;-122.940;2023-08-20T02:38:13;8.32;;;5.78;;
80707;SDS011;70222;49.204;-122.940;2023-08-20T02:40:40;5.97;;;4.97;;
80707;SDS011;70222;49.204;-122.940;2023-08-20T02:45:33;6.72;;;6.03;;
80707;SDS011;70222;49.204;-122.940;2023-08-20T02:47:59;8.13;;;5.85;;
80707;SDS011;70222;49.204;-122.940;2023-08-20T02:52:51;10.10;;;5.93;;
80707;SDS011;70222;49.204;-122.940;2023-08-20T02:55:17;7.20;;;5.75;;
80707;SDS011;70222;49.204;-122.940;2023-08-20T02:57:43;7.45;;;5.72;;
80707;SDS011;70222;49.204;-122.940;2023-08-20T03:00:09;9.45;;;6.15;;
80707;SDS011;70222;49.204;-122.940;2023-08-20T03:02:36;9.23;;;6.38;;
80707;SDS011;70222;49.204;-122.940;2023-08-20T03:05:02;9.75;;;5.30;;
80707;SDS011;70222;49.204;-122.940;2023-08-20T03:07:31;7.95;;;5.80;;
80707;SDS011;70222;49.204;-122.940;2023-08-20T03:09:57;7.13;;;4.88;;
80707;SDS011;70222;49.204;-122.940;2023-08-20T03:12:23;8.55;;;5.07;;
80707;SDS011;70222;49.204;-122.940;2023-08-20T03:14:49;8.15;;;4.95;;
80707;SDS011;70222;49.204;-122.940;2023-08-20T03:17:15;7.93;;;5.97;;
80707;SDS011;70222;49.204;-122.940;2023-08-20T03:19:53;8.65;;;5.57;;
80707;SDS011;70222;49.204;-122.940;2023-08-20T03:22:20;8.48;;;5.40;;
80707;SDS011;70222;49.204;-122.940;2023-08-20T03:24:46;9.73;;;5.45;;
80707;SDS011;70222;49.204;-122.940;2023-08-20T03:27:12;7.43;;;5.70;;
80707;SDS011;70222;49.204;-122.940;2023-08-20T03:29:38;8.77;;;5.45;;
80707;SDS011;70222;49.204;-122.940;2023-08-20T03:32:04;7.05;;;5.40;;
80707;SDS011;70222;49.204;-122.940;2023-08-20T03:34:31;9.00;;;5.80;;
80707;SDS011;70222;49.204;-122.940;2023-08-20T03:36:57;8.63;;;6.70;;
80707;SDS011;70222;49.204;-122.940;2023-08-20T03:39:23;8.48;;;5.78;;
80707;SDS011;70222;49.204;-122.940;2023-08-20T03:41:52;12.50;;;5.88;;
80707;SDS011;70222;49.204;-122.940;2023-08-20T03:44:18;8.70;;;5.10;;
80707;SDS011;70222;49.204;-122.940;2023-08-20T03:46:45;8.57;;;5.60;;
80707;SDS011;70222;49.204;-122.940;2023-08-20T03:49:11;8.55;;;5.60;;
80707;SDS011;70222;49.204;-122.940;2023-08-20T03:51:37;7.78;;;5.82;;
80707;SDS011;70222;49.204;-122.940;2023-08-20T03:54:03;8.85;;;6.35;;
80707;SDS011;70222;49.204;-122.940;2023-08-20T03:56:29;8.40;;;5.28;;
80707;SDS011;70222;49.204;-122.940;2023-08-20T03:58:55;8.82;;;5.15;;
80707;SDS011;70222;49.204;-122.940;2023-08-20T04:01:23;8.27;;;5.65;;
80707;SDS011;70222;49.204;-122.940;2023-08-20T04:03:49;10.20;;;5.90;;
80707;SDS011;70222;49.204;-122.940;2023-08-20T04:06:15;8.82;;;5.63;;
80707;SDS011;70222;49.204;-122.940;2023-08-20T04:08:41;7.68;;;5.78;;
80707;SDS011;70222;49.204;-122.940;2023-08-20T04:11:08;9.40;;;6.10;;
80707;SDS011;70222;49.204;-122.940;2023-08-20T04:13:34;7.43;;;5.55;;
80707;SDS011;70222;49.204;-122.940;2023-08-20T04:16:00;9.40;;;6.15;;
80707;SDS011;70222;49.204;-122.940;2023-08-20T04:18:26;10.32;;;6.47;;
80707;SDS011;70222;49.204;-122.940;2023-08-20T04:20:52;13.38;;;7.18;;
80707;SDS011;70222;49.204;-122.940;2023-08-20T04:23:19;11.20;;;7.63;;
80707;SDS011;70222;49.204;-122.940;2023-08-20T04:25:46;11.45;;;7.68;;
80707;SDS011;70222;49.204;-122.940;2023-08-20T04:28:12;11.52;;;8.30;;
80707;SDS011;70222;49.204;-122.940;2023-08-20T04:30:38;11.45;;;7.75;;
80707;SDS011;70222;49.204;-122.940;2023-08-20T04:33:05;11.82;;;7.18;;
80707;SDS011;70222;49.204;-122.940;2023-08-20T04:35:31;9.52;;;7.35;;
80707;SDS011;70222;49.204;-122.940;2023-08-20T04:37:57;9.95;;;6.97;;
80707;SDS011;70222;49.204;-122.940;2023-08-20T04:40:24;9.68;;;5.90;;
80707;SDS011;70222;49.204;-122.940;2023-08-20T04:42:50;9.50;;;6.68;;
80707;SDS011;70222;49.204;-122.940;2023-08-20T04:45:17;9.48;;;6.22;;
80707;SDS011;70222;49.204;-122.940;2023-08-20T04:47:45;10.73;;;7.03;;
80707;SDS011;70222;49.204;-122.940;2023-08-20T04:50:11;13.70;;;7.55;;
80707;SDS011;70222;49.204;-122.940;2023-08-20T04:52:38;12.80;;;7.68;;
80707;SDS011;70222;49.204;-122.940;2023-08-20T04:55:05;12.48;;;7.93;;
80707;SDS011;70222;49.204;-122.940;2023-08-20T04:57:32;11.45;;;7.43;;
80707;SDS011;70222;49.204;-122.940;2023-08-20T04:59:59;11.23;;;8.05;;
80707;SDS011;70222;49.204;-122.940;2023-08-20T05:02:25;12.70;;;7.85;;
80707;SDS011;70222;49.204;-122.940;2023-08-20T05:04:52;12.93;;;8.00;;
80707;SDS011;70222;49.204;-122.940;2023-08-20T05:07:18;11.63;;;7.50;;
80707;SDS011;70222;49.204;-122.940;2023-08-20T05:09:44;12.30;;;7.88;;
80707;SDS011;70222;49.204;-122.940;2023-08-20T05:12:10;9.75;;;7.57;;
80707;SDS011;70222;49.204;-122.940;2023-08-20T05:14:36;11.98;;;7.43;;
80707;SDS011;70222;49.204;-122.940;2023-08-20T05:17:02;11.57;;;8.45;;
80707;SDS011;70222;49.204;-122.940;2023-08-20T05:19:29;11.63;;;8.70;;
80707;SDS011;70222;49.204;-122.940;2023-08-20T05:21:55;13.07;;;9.23;;
80707;SDS011;70222;49.204;-122.940;2023-08-20T05:24:24;15.18;;;9.60;;
80707;SDS011;70222;49.204;-122.940;2023-08-20T05:27:11;13.13;;;9.35;;
80707;SDS011;70222;49.204;-122.940;2023-08-20T05:29:42;11.95;;;8.55;;
80707;SDS011;70222;49.204;-122.940;2023-08-20T05:32:08;11.73;;;8.00;;
80707;SDS011;70222;49.204;-122.940;2023-08-20T05:34:35;14.82;;;9.55;;
80707;SDS011;70222;49.204;-122.940;2023-08-20T05:37:01;15.13;;;10.23;;
80707;SDS011;70222;49.204;-122.940;2023-08-20T05:39:30;14.93;;;12.23;;
80707;SDS011;70222;49.204;-122.940;2023-08-20T05:41:56;15.43;;;11.80;;
80707;SDS011;70222;49.204;-122.940;2023-08-20T05:44:22;18.98;;;12.30;;
80707;SDS011;70222;49.204;-122.940;2023-08-20T05:46:48;17.33;;;12.98;;
80707;SDS011;70222;49.204;-122.940;2023-08-20T05:49:15;18.48;;;14.45;;
80707;SDS011;70222;49.204;-122.940;2023-08-20T05:51:41;16.77;;;12.73;;
80707;SDS011;70222;49.204;-122.940;2023-08-20T05:54:08;19.52;;;14.55;;
80707;SDS011;70222;49.204;-122.940;2023-08-20T05:56:34;19.98;;;15.10;;
80707;SDS011;70222;49.204;-122.940;2023-08-20T05:59:00;20.60;;;14.60;;
80707;SDS011;70222;49.204;-122.940;2023-08-20T06:01:26;20.60;;;13.73;;
80707;SDS011;70222;49.204;-122.940;2023-08-20T06:03:52;23.92;;;14.93;;
80707;SDS011;70222;49.204;-122.940;2023-08-20T06:06:19;22.90;;;15.35;;
80707;SDS011;70222;49.204;-122.940;2023-08-20T06:08:45;20.60;;;15.35;;
80707;SDS011;70222;49.204;-122.940;2023-08-20T06:11:11;20.45;;;14.73;;
80707;SDS011;70222;49.204;-122.940;2023-08-20T06:13:37;20.70;;;14.73;;
80707;SDS011;70222;49.204;-122.940;2023-08-20T06:16:03;18.05;;;15.02;;
80707;SDS011;70222;49.204;-122.940;2023-08-20T06:18:29;19.70;;;16.02;;
80707;SDS011;70222;49.204;-122.940;2023-08-20T06:20:55;21.83;;;16.50;;
80707;SDS011;70222;49.204;-122.940;2023-08-20T06:23:21;22.63;;;16.35;;
80707;SDS011;70222;49.204;-122.940;2023-08-20T06:25:47;22.85;;;18.08;;
80707;SDS011;70222;49.204;-122.940;2023-08-20T06:28:16;26.45;;;21.55;;
80707;SDS011;70222;49.204;-122.940;2023-08-20T06:30:44;27.90;;;22.45;;
80707;SDS011;70222;49.204;-122.940;2023-08-20T06:35:36;33.28;;;24.20;;
80707;SDS011;70222;49.204;-122.940;2023-08-20T06:38:02;32.17;;;24.70;;
80707;SDS011;70222;49.204;-122.940;2023-08-20T06:40:28;35.03;;;26.52;;
80707;SDS011;70222;49.204;-122.940;2023-08-20T06:42:55;37.20;;;29.20;;
80707;SDS011;70222;49.204;-122.940;2023-08-20T06:45:21;35.47;;;26.00;;
80707;SDS011;70222;49.204;-122.940;2023-08-20T06:47:47;39.90;;;30.30;;
80707;SDS011;70222;49.204;-122.940;2023-08-20T06:50:13;41.75;;;32.88;;
80707;SDS011;70222;49.204;-122.940;2023-08-20T06:52:39;45.83;;;37.15;;
80707;SDS011;70222;49.204;-122.940;2023-08-20T06:55:06;46.83;;;35.78;;
80707;SDS011;70222;49.204;-122.940;2023-08-20T06:57:32;41.88;;;34.92;;
80707;SDS011;70222;49.204;-122.940;2023-08-20T06:59:58;44.25;;;33.80;;
80707;SDS011;70222;49.204;-122.940;2023-08-20T07:02:24;42.08;;;33.38;;
80707;SDS011;70222;49.204;-122.940;2023-08-20T07:04:50;45.30;;;35.35;;
80707;SDS011;70222;49.204;-122.940;2023-08-20T07:07:16;44.83;;;35.63;;
80707;SDS011;70222;49.204;-122.940;2023-08-20T07:09:42;49.85;;;38.30;;
80707;SDS011;70222;49.204;-122.940;2023-08-20T07:12:08;47.83;;;39.65;;
80707;SDS011;70222;49.204;-122.940;2023-08-20T07:14:34;46.35;;;36.45;;
80707;SDS011;70222;49.204;-122.940;2023-08-20T07:17:00;54.97;;;39.83;;
80707;SDS011;70222;49.204;-122.940;2023-08-20T07:21:54;44.60;;;34.22;;
80707;SDS011;70222;49.204;-122.940;2023-08-20T07:24:20;51.17;;;38.95;;
80707;SDS011;70222;49.204;-122.940;2023-08-20T07:26:54;45.33;;;33.38;;
80707;SDS011;70222;49.204;-122.940;2023-08-20T07:29:26;42.55;;;31.70;;
80707;SDS011;70222;49.204;-122.940;2023-08-20T07:31:55;38.92;;;29.63;;
80707;SDS011;70222;49.204;-122.940;2023-08-20T07:34:22;34.20;;;27.33;;
80707;SDS011;70222;49.204;-122.940;2023-08-20T07:36:48;34.03;;;25.38;;
80707;SDS011;70222;49.204;-122.940;2023-08-20T07:39:14;33.55;;;25.00;;
80707;SDS011;70222;49.204;-122.940;2023-08-20T07:41:40;41.20;;;27.92;;
80707;SDS011;70222;49.204;-122.940;2023-08-20T07:44:07;36.80;;;27.42;;
80707;SDS011;70222;49.204;-122.940;2023-08-20T07:46:33;36.65;;;29.30;;
80707;SDS011;70222;49.204;-122.940;2023-08-20T07:48:59;41.08;;;30.88;;
80707;SDS011;70222;49.204;-122.940;2023-08-20T07:51:25;48.50;;;36.42;;
80707;SDS011;70222;49.204;-122.940;2023-08-20T07:53:51;55.95;;;41.22;;
80707;SDS011;70222;49.204;-122.940;2023-08-20T07:56:17;56.47;;;43.38;;
80707;SDS011;70222;49.204;-122.940;2023-08-20T07:58:43;53.67;;;43.78;;
80707;SDS011;70222;49.204;-122.940;2023-08-20T08:01:09;55.80;;;41.15;;
80707;SDS011;70222;49.204;-122.940;2023-08-20T08:03:36;47.72;;;37.45;;
80707;SDS011;70222;49.204;-122.940;2023-08-20T08:06:02;51.85;;;41.13;;
80707;SDS011;70222;49.204;-122.940;2023-08-20T08:08:28;49.25;;;36.35;;
80707;SDS011;70222;49.204;-122.940;2023-08-20T08:10:54;42.75;;;34.58;;
80707;SDS011;70222;49.204;-122.940;2023-08-20T08:13:21;43.65;;;32.08;;
80707;SDS011;70222;49.204;-122.940;2023-08-20T08:15:48;44.88;;;34.88;;
80707;SDS011;70222;49.204;-122.940;2023-08-20T08:18:15;48.50;;;35.15;;
80707;SDS011;70222;49.204;-122.940;2023-08-20T08:20:41;46.88;;;36.65;;
80707;SDS011;70222;49.204;-122.940;2023-08-20T08:23:07;47.35;;;35.70;;
80707;SDS011;70222;49.204;-122.940;2023-08-20T08:25:33;51.95;;;39.50;;
80707;SDS011;70222;49.204;-122.940;2023-08-20T08:27:59;46.75;;;38.05;;
80707;SDS011;70222;49.204;-122.940;2023-08-20T08:30:25;50.72;;;37.25;;
80707;SDS011;70222;49.204;-122.940;2023-08-20T08:32:51;47.00;;;33.72;;
80707;SDS011;70222;49.204;-122.940;2023-08-20T08:35:18;46.97;;;34.08;;
80707;SDS011;70222;49.204;-122.940;2023-08-20T08:40:10;43.35;;;32.15;;
80707;SDS011;70222;49.204;-122.940;2023-08-20T08:42:37;44.30;;;32.10;;
80707;SDS011;70222;49.204;-122.940;2023-08-20T08:45:03;43.75;;;32.53;;
80707;SDS011;70222;49.204;-122.940;2023-08-20T08:47:29;43.15;;;31.75;;
80707;SDS011;70222;49.204;-122.940;2023-08-20T08:49:56;43.78;;;31.40;;
80707;SDS011;70222;49.204;-122.940;2023-08-20T08:52:22;48.67;;;34.67;;
80707;SDS011;70222;49.204;-122.940;2023-08-20T08:54:49;49.47;;;34.25;;
80707;SDS011;70222;49.204;-122.940;2023-08-20T08:57:15;46.75;;;32.53;;
80707;SDS011;70222;49.204;-122.940;2023-08-20T08:59:42;42.47;;;29.75;;
80707;SDS011;70222;49.204;-122.940;2023-08-20T09:02:09;46.83;;;33.20;;
80707;SDS011;70222;49.204;-122.940;2023-08-20T09:04:40;39.88;;;28.90;;
80707;SDS011;70222;49.204;-122.940;2023-08-20T09:07:15;40.60;;;26.90;;
80707;SDS011;70222;49.204;-122.940;2023-08-20T09:09:42;38.47;;;28.30;;
80707;SDS011;70222;49.204;-122.940;2023-08-20T09:12:18;36.78;;;27.73;;
80707;SDS011;70222;49.204;-122.940;2023-08-20T09:14:49;37.05;;;26.35;;
80707;SDS011;70222;49.204;-122.940;2023-08-20T09:17:16;33.63;;;24.63;;
80707;SDS011;70222;49.204;-122.940;2023-08-20T09:19:43;32.92;;;24.02;;
80707;SDS011;70222;49.204;-122.940;2023-08-20T09:22:14;32.65;;;22.88;;
80707;SDS011;70222;49.204;-122.940;2023-08-20T09:24:41;30.95;;;20.48;;
80707;SDS011;70222;49.204;-122.940;2023-08-20T09:27:11;30.13;;;22.75;;
80707;SDS011;70222;49.204;-122.940;2023-08-20T09:32:14;32.67;;;23.77;;
80707;SDS011;70222;49.204;-122.940;2023-08-20T09:34:41;31.98;;;22.05;;
80707;SDS011;70222;49.204;-122.940;2023-08-20T09:37:08;31.48;;;22.08;;
80707;SDS011;70222;49.204;-122.940;2023-08-20T09:39:35;33.83;;;23.38;;
80707;SDS011;70222;49.204;-122.940;2023-08-20T09:42:01;30.95;;;20.90;;
80707;SDS011;70222;49.204;-122.940;2023-08-20T09:44:29;28.98;;;19.40;;
80707;SDS011;70222;49.204;-122.940;2023-08-20T09:47:22;31.35;;;20.77;;
80707;SDS011;70222;49.204;-122.940;2023-08-20T09:49:47;31.02;;;21.02;;
80707;SDS011;70222;49.204;-122.940;2023-08-20T09:52:35;27.48;;;22.20;;
80707;SDS011;70222;49.204;-122.940;2023-08-20T09:55:08;32.33;;;22.50;;
80707;SDS011;70222;49.204;-122.940;2023-08-20T09:57:36;31.42;;;22.63;;
80707;SDS011;70222;49.204;-122.940;2023-08-20T10:00:04;32.47;;;23.88;;
80707;SDS011;70222;49.204;-122.940;2023-08-20T10:02:35;31.92;;;22.15;;
80707;SDS011;70222;49.204;-122.940;2023-08-20T10:05:02;35.78;;;24.60;;
80707;SDS011;70222;49.204;-122.940;2023-08-20T10:07:29;33.08;;;24.95;;
80707;SDS011;70222;49.204;-122.940;2023-08-20T10:10:00;31.05;;;22.75;;
80707;SDS011;70222;49.204;-122.940;2023-08-20T10:12:28;37.95;;;25.40;;
80707;SDS011;70222;49.204;-122.940;2023-08-20T10:14:55;35.05;;;25.00;;
80707;SDS011;70222;49.204;-122.940;2023-08-20T10:19:54;36.83;;;27.45;;
80707;SDS011;70222;49.204;-122.940;2023-08-20T10:22:25;39.47;;;30.33;;
80707;SDS011;70222;49.204;-122.940;2023-08-20T10:25:08;45.33;;;32.83;;
80707;SDS011;70222;49.204;-122.940;2023-08-20T10:27:44;43.95;;;32.70;;
80707;SDS011;70222;49.204;-122.940;2023-08-20T10:30:13;41.53;;;31.40;;
80707;SDS011;70222;49.204;-122.940;2023-08-20T10:32:50;46.53;;;32.97;;
80707;SDS011;70222;49.204;-122.940;2023-08-20T10:35:23;47.08;;;32.88;;
80707;SDS011;70222;49.204;-122.940;2023-08-20T10:38:05;49.33;;;34.95;;
80707;SDS011;70222;49.204;-122.940;2023-08-20T10:40:52;44.25;;;34.10;;
80707;SDS011;70222;49.204;-122.940;2023-08-20T10:43:32;46.25;;;33.10;;
80707;SDS011;70222;49.204;-122.940;2023-08-20T10:48:29;44.92;;;34.25;;
80707;SDS011;70222;49.204;-122.940;2023-08-20T10:51:05;44.28;;;31.88;;
80707;SDS011;70222;49.204;-122.940;2023-08-20T10:53:35;42.47;;;32.20;;
80707;SDS011;70222;49.204;-122.940;2023-08-20T10:56:09;43.33;;;30.60;;
80707;SDS011;70222;49.204;-122.940;2023-08-20T10:58:41;41.88;;;30.88;;
80707;SDS011;70222;49.204;-122.940;2023-08-20T11:01:18;40.78;;;29.67;;
80707;SDS011;70222;49.204;-122.940;2023-08-20T11:03:46;42.53;;;30.65;;
80707;SDS011;70222;49.204;-122.940;2023-08-20T11:06:14;37.88;;;28.63;;
80707;SDS011;70222;49.204;-122.940;2023-08-20T11:08:41;41.10;;;26.83;;
80707;SDS011;70222;49.204;-122.940;2023-08-20T11:11:08;37.50;;;25.73;;
80707;SDS011;70222;49.204;-122.940;2023-08-20T11:13:34;38.88;;;27.58;;
80707;SDS011;70222;49.204;-122.940;2023-08-20T11:16:04;42.65;;;26.88;;
80707;SDS011;70222;49.204;-122.940;2023-08-20T11:18:34;39.67;;;28.45;;
80707;SDS011;70222;49.204;-122.940;2023-08-20T11:21:01;32.70;;;25.33;;
80707;SDS011;70222;49.204;-122.940;2023-08-20T11:23:28;36.58;;;24.90;;
80707;SDS011;70222;49.204;-122.940;2023-08-20T11:25:55;36.33;;;26.08;;
80707;SDS011;70222;49.204;-122.940;2023-08-20T11:28:21;35.40;;;25.95;;
80707;SDS011;70222;49.204;-122.940;2023-08-20T11:30:48;34.33;;;24.48;;
80707;SDS011;70222;49.204;-122.940;2023-08-20T11:33:16;34.58;;;25.40;;
80707;SDS011;70222;49.204;-122.940;2023-08-20T11:35:42;36.15;;;26.65;;
80707;SDS011;70222;49.204;-122.940;2023-08-20T11:38:09;33.10;;;23.63;;
80707;SDS011;70222;49.204;-122.940;2023-08-20T11:40:36;37.35;;;25.58;;
80707;SDS011;70222;49.204;-122.940;2023-08-20T11:43:02;35.28;;;27.23;;
80707;SDS011;70222;49.204;-122.940;2023-08-20T11:45:29;33.47;;;25.35;;
80707;SDS011;70222;49.204;-122.940;2023-08-20T11:47:56;39.53;;;24.80;;
80707;SDS011;70222;49.204;-122.940;2023-08-20T11:50:23;34.28;;;25.05;;
80707;SDS011;70222;49.204;-122.940;2023-08-20T11:52:51;35.38;;;23.83;;
80707;SDS011;70222;49.204;-122.940;2023-08-20T11:55:24;32.08;;;24.42;;
80707;SDS011;70222;49.204;-122.940;2023-08-20T11:57:51;34.72;;;23.45;;
80707;SDS011;70222;49.204;-122.940;2023-08-20T12:00:24;35.28;;;24.77;;
80707;SDS011;70222;49.204;-122.940;2023-08-20T12:02:55;30.48;;;22.17;;
80707;SDS011;70222;49.204;-122.940;2023-08-20T12:05:21;32.42;;;24.23;;
80707;SDS011;70222;49.204;-122.940;2023-08-20T12:07:58;36.13;;;22.25;;
80707;SDS011;70222;49.204;-122.940;2023-08-20T12:10:28;37.38;;;25.58;;
80707;SDS011;70222;49.204;-122.940;2023-08-20T12:12:56;38.22;;;25.83;;
80707;SDS011;70222;49.204;-122.940;2023-08-20T12:15:23;42.80;;;26.73;;
80707;SDS011;70222;49.204;-122.940;2023-08-20T12:18:00;38.10;;;25.67;;
80707;SDS011;70222;49.204;-122.940;2023-08-20T12:20:30;34.00;;;24.13;;
80707;SDS011;70222;49.204;-122.940;2023-08-20T12:23:01;37.80;;;26.55;;
80707;SDS011;70222;49.204;-122.940;2023-08-20T12:25:32;32.55;;;24.10;;
80707;SDS011;70222;49.204;-122.940;2023-08-20T12:28:00;39.50;;;25.83;;
80707;SDS011;70222;49.204;-122.940;2023-08-20T12:30:27;35.85;;;24.92;;
80707;SDS011;70222;49.204;-122.940;2023-08-20T12:32:53;33.30;;;24.58;;
80707;SDS011;70222;49.204;-122.940;2023-08-20T12:35:19;34.88;;;24.70;;
80707;SDS011;70222;49.204;-122.940;2023-08-20T12:37:46;34.55;;;24.90;;
80707;SDS011;70222;49.204;-122.940;2023-08-20T12:40:12;36.58;;;25.38;;
80707;SDS011;70222;49.204;-122.940;2023-08-20T12:42:38;33.83;;;23.80;;
80707;SDS011;70222;49.204;-122.940;2023-08-20T12:45:05;35.70;;;25.60;;
80707;SDS011;70222;49.204;-122.940;2023-08-20T12:47:33;34.22;;;25.40;;
80707;SDS011;70222;49.204;-122.940;2023-08-20T12:49:59;33.40;;;25.02;;
80707;SDS011;70222;49.204;-122.940;2023-08-20T12:52:26;33.28;;;24.85;;
80707;SDS011;70222;49.204;-122.940;2023-08-20T12:54:52;34.58;;;25.05;;
80707;SDS011;70222;49.204;-122.940;2023-08-20T12:57:18;34.60;;;24.40;;
80707;SDS011;70222;49.204;-122.940;2023-08-20T12:59:44;36.10;;;24.42;;
80707;SDS011;70222;49.204;-122.940;2023-08-20T13:02:10;35.42;;;25.13;;
80707;SDS011;70222;49.204;-122.940;2023-08-20T13:04:37;33.72;;;25.17;;
80707;SDS011;70222;49.204;-122.940;2023-08-20T13:07:04;34.90;;;23.60;;
80707;SDS011;70222;49.204;-122.940;2023-08-20T13:09:30;33.40;;;24.92;;
80707;SDS011;70222;49.204;-122.940;2023-08-20T13:11:56;34.03;;;25.25;;
80707;SDS011;70222;49.204;-122.940;2023-08-20T13:14:23;35.38;;;25.50;;
80707;SDS011;70222;49.204;-122.940;2023-08-20T13:16:49;38.40;;;24.77;;
80707;SDS011;70222;49.204;-122.940;2023-08-20T13:19:15;37.00;;;25.63;;
80707;SDS011;70222;49.204;-122.940;2023-08-20T13:21:42;36.25;;;25.48;;
80707;SDS011;70222;49.204;-122.940;2023-08-20T13:24:08;37.45;;;26.77;;
80707;SDS011;70222;49.204;-122.940;2023-08-20T13:26:34;33.72;;;25.40;;
80707;SDS011;70222;49.204;-122.940;2023-08-20T13:29:00;35.92;;;24.98;;
80707;SDS011;70222;49.204;-122.940;2023-08-20T13:31:26;40.90;;;26.02;;
80707;SDS011;70222;49.204;-122.940;2023-08-20T13:33:52;33.95;;;25.33;;
80707;SDS011;70222;49.204;-122.940;2023-08-20T13:36:19;33.92;;;25.67;;
80707;SDS011;70222;49.204;-122.940;2023-08-20T13:38:45;35.72;;;24.60;;
80707;SDS011;70222;49.204;-122.940;2023-08-20T13:41:11;33.42;;;23.23;;
80707;SDS011;70222;49.204;-122.940;2023-08-20T13:43:37;31.58;;;24.25;;
80707;SDS011;70222;49.204;-122.940;2023-08-20T13:46:03;40.60;;;26.63;;
80707;SDS011;70222;49.204;-122.940;2023-08-20T13:48:29;34.97;;;24.33;;
80707;SDS011;70222;49.204;-122.940;2023-08-20T13:50:55;37.72;;;24.83;;
80707;SDS011;70222;49.204;-122.940;2023-08-20T13:53:24;34.67;;;24.15;;
80707;SDS011;70222;49.204;-122.940;2023-08-20T13:55:50;38.63;;;25.90;;
80707;SDS011;70222;49.204;-122.940;2023-08-20T13:58:16;34.95;;;25.50;;
80707;SDS011;70222;49.204;-122.940;2023-08-20T14:00:43;36.75;;;25.50;;
80707;SDS011;70222;49.204;-122.940;2023-08-20T14:03:09;34.95;;;24.67;;
80707;SDS011;70222;49.204;-122.940;2023-08-20T14:05:35;35.42;;;24.90;;
80707;SDS011;70222;49.204;-122.940;2023-08-20T14:08:01;36.38;;;25.25;;
80707;SDS011;70222;49.204;-122.940;2023-08-20T14:12:54;32.67;;;23.15;;
80707;SDS011;70222;49.204;-122.940;2023-08-20T14:15:20;42.13;;;25.85;;
80707;SDS011;70222;49.204;-122.940;2023-08-20T14:17:46;34.92;;;22.95;;
80707;SDS011;70222;49.204;-122.940;2023-08-20T14:20:12;38.90;;;25.27;;
80707;SDS011;70222;49.204;-122.940;2023-08-20T14:22:39;35.30;;;23.20;;
80707;SDS011;70222;49.204;-122.940;2023-08-20T14:25:05;35.03;;;22.95;;
80707;SDS011;70222;49.204;-122.940;2023-08-20T14:27:32;34.70;;;25.23;;
80707;SDS011;70222;49.204;-122.940;2023-08-20T14:29:58;30.17;;;23.73;;
80707;SDS011;70222;49.204;-122.940;2023-08-20T14:32:24;35.70;;;24.33;;
80707;SDS011;70222;49.204;-122.940;2023-08-20T14:34:50;36.53;;;25.77;;